createdAt,value
2023-04-11T00:01:12.931Z,546.00
2023-04-11T00:05:13.102Z,546.00
2023-04-11T00:09:13.265Z,542.00
2023-04-11T00:13:13.853Z,547.00
2023-04-11T00:17:13.837Z,544.00
2023-04-11T00:21:13.798Z,547.00
2023-04-11T00:25:13.999Z,545.00
2023-04-11T00:29:14.310Z,543.00
2023-04-11T00:33:14.791Z,546.00
2023-04-11T00:37:15.287Z,545.00
2023-04-11T00:41:14.689Z,545.00
2023-04-11T00:45:15.287Z,544.00
2023-04-11T00:49:15.389Z,544.00
2023-04-11T00:53:15.323Z,542.00
2023-04-11T00:57:15.788Z,543.00
2023-04-11T01:01:15.648Z,544.00
2023-04-11T01:05:16.322Z,543.00
2023-04-11T01:09:16.295Z,545.00
2023-04-11T01:13:16.170Z,544.00
2023-04-11T01:17:16.842Z,542.00
2023-04-11T01:21:16.517Z,543.00
2023-04-11T01:25:16.753Z,545.00
2023-04-11T01:29:17.321Z,540.00
2023-04-11T01:33:17.307Z,546.00
2023-04-11T01:37:17.802Z,542.00
2023-04-11T01:41:17.510Z,544.00
2023-04-11T01:45:17.836Z,540.00
2023-04-11T01:49:18.361Z,540.00
2023-04-11T01:53:18.349Z,541.00
2023-04-11T01:57:18.811Z,540.00
2023-04-11T02:01:18.565Z,542.00
2023-04-11T02:05:18.832Z,541.00
2023-04-11T02:09:19.299Z,540.00
2023-04-11T02:13:19.143Z,538.00
2023-04-11T02:17:19.441Z,540.00
2023-04-11T02:21:19.815Z,540.00
2023-04-11T02:25:19.784Z,540.00
2023-04-11T02:29:20.323Z,541.00
2023-04-11T02:33:20.165Z,541.00
2023-04-11T02:37:20.342Z,541.00
2023-04-11T02:41:20.648Z,539.00
2023-04-11T02:45:20.887Z,542.00
2023-04-11T02:49:21.332Z,536.00
2023-04-11T02:53:21.336Z,542.00
2023-04-11T02:57:21.365Z,540.00
2023-04-11T03:01:21.923Z,537.00
2023-04-11T03:05:22.403Z,535.00
2023-04-11T03:09:22.384Z,536.00
2023-04-11T03:13:22.206Z,536.00
2023-04-11T03:17:22.394Z,539.00
2023-04-11T03:21:22.850Z,539.00
2023-04-11T03:25:22.855Z,543.00
2023-04-11T03:29:23.855Z,540.00
2023-04-11T03:33:23.079Z,540.00
2023-04-11T03:37:23.323Z,538.00
2023-04-11T03:41:23.531Z,537.00
2023-04-11T03:45:23.860Z,533.00
2023-04-11T03:49:24.404Z,535.00
2023-04-11T03:53:24.378Z,535.00
2023-04-11T03:57:24.300Z,536.00
2023-04-11T04:01:24.466Z,539.00
2023-04-11T04:05:24.924Z,535.00
2023-04-11T04:09:25.450Z,539.00
2023-04-11T04:13:25.136Z,539.00
2023-04-11T04:17:25.357Z,544.00
2023-04-11T04:21:25.519Z,534.00
2023-04-11T04:25:26.160Z,538.00
2023-04-11T04:29:26.357Z,536.00
2023-04-11T04:33:27.639Z,536.00
2023-04-11T04:37:25.840Z,535.00
2023-04-11T04:41:26.360Z,534.00
2023-04-11T04:45:26.595Z,538.00
2023-04-11T04:49:26.445Z,536.00
2023-04-11T04:53:26.967Z,531.00
2023-04-11T04:57:26.647Z,536.00
2023-04-11T05:01:26.719Z,539.00
2023-04-11T05:05:26.961Z,535.00
2023-04-11T05:09:26.654Z,536.00
2023-04-11T05:13:26.458Z,536.00
2023-04-11T05:17:26.987Z,536.00
2023-04-11T05:21:26.892Z,535.00
2023-04-11T05:25:26.937Z,535.00
2023-04-11T05:29:26.298Z,536.00
2023-04-11T05:33:26.313Z,535.00
2023-04-11T05:37:26.915Z,534.00
2023-04-11T05:41:26.917Z,533.00
2023-04-11T05:45:26.415Z,536.00
2023-04-11T05:49:26.323Z,539.00
2023-04-11T05:53:26.394Z,535.00
2023-04-11T05:57:26.425Z,536.00
2023-04-11T06:01:26.247Z,538.00
2023-04-11T06:05:26.499Z,538.00
2023-04-11T06:09:26.468Z,538.00
2023-04-11T06:13:26.290Z,541.00
2023-04-11T06:17:27.065Z,541.00
2023-04-11T06:21:26.904Z,544.00
2023-04-11T06:25:27.379Z,542.00
2023-04-11T06:29:27.142Z,542.00
2023-04-11T06:33:27.319Z,545.00
2023-04-11T06:37:27.885Z,545.00
2023-04-11T06:41:27.961Z,545.00
2023-04-11T06:45:27.907Z,542.00
2023-04-11T06:49:28.062Z,544.00
2023-04-11T06:53:28.436Z,544.00
2023-04-11T06:57:28.514Z,541.00
2023-04-11T07:01:28.707Z,544.00
2023-04-11T07:05:28.942Z,543.00
2023-04-11T07:09:29.100Z,545.00
2023-04-11T07:13:29.272Z,545.00
2023-04-11T07:17:29.987Z,542.00
2023-04-11T07:21:30.005Z,542.00
2023-04-11T07:25:29.941Z,544.00
2023-04-11T07:29:29.970Z,544.00
2023-04-11T07:33:30.519Z,544.00
2023-04-11T07:37:30.456Z,544.00
2023-04-11T07:41:30.931Z,543.00
2023-04-11T07:45:30.966Z,542.00
2023-04-11T07:49:31.004Z,543.00
2023-04-11T07:53:31.433Z,547.00
2023-04-11T07:57:31.449Z,545.00
2023-04-11T08:01:31.438Z,544.00
2023-04-11T08:05:32.030Z,545.00
2023-04-11T08:09:31.747Z,544.00
2023-04-11T08:13:31.969Z,546.00
2023-04-11T08:17:32.620Z,546.00
2023-04-11T08:21:32.958Z,545.00
2023-04-11T08:25:32.434Z,544.00
2023-04-11T08:29:33.023Z,542.00
2023-04-11T08:33:32.983Z,545.00
2023-04-11T08:37:33.128Z,543.00
2023-04-11T08:41:33.472Z,544.00
2023-04-11T08:45:33.274Z,544.00
2023-04-11T08:49:33.527Z,548.00
2023-04-11T08:53:33.562Z,547.00
2023-04-11T08:57:33.933Z,546.00
2023-04-11T09:01:33.954Z,543.00
2023-04-11T09:05:34.037Z,543.00
2023-04-11T09:09:34.483Z,545.00
2023-04-11T09:13:35.006Z,543.00
2023-04-11T09:17:35.038Z,542.00
2023-04-11T09:21:34.686Z,546.00
2023-04-11T09:25:35.491Z,550.00
2023-04-11T09:29:35.467Z,549.00
2023-04-11T09:33:35.479Z,543.00
2023-04-11T09:37:35.408Z,546.00
2023-04-11T09:41:36.018Z,547.00
2023-04-11T09:45:44.172Z,550.00
2023-04-11T09:49:37.025Z,548.00
2023-04-11T09:53:36.048Z,547.00
2023-04-11T09:57:36.015Z,544.00
2023-04-11T10:01:35.840Z,545.00
2023-04-11T10:05:35.994Z,547.00
2023-04-11T10:09:36.527Z,551.00
2023-04-11T10:13:36.475Z,550.00
2023-04-11T10:17:36.529Z,554.00
2023-04-11T10:21:36.599Z,544.00
2023-04-11T10:25:36.740Z,553.00
2023-04-11T10:29:37.033Z,545.00
2023-04-11T10:33:36.961Z,550.00
2023-04-11T10:37:37.525Z,547.00
2023-04-11T10:41:37.085Z,544.00
2023-04-11T10:45:37.540Z,543.00
2023-04-11T10:49:37.547Z,543.00
2023-04-11T10:53:37.252Z,546.00
2023-04-11T10:57:37.494Z,542.00
2023-04-11T11:01:42.902Z,540.00
2023-04-11T11:05:39.346Z,543.00
2023-04-11T11:09:37.488Z,544.00
2023-04-11T11:13:37.073Z,539.00
2023-04-11T11:17:37.497Z,543.00
2023-04-11T11:21:37.007Z,551.00
2023-04-11T11:25:37.511Z,541.00
2023-04-11T11:29:37.053Z,542.00
2023-04-11T11:33:36.898Z,542.00
2023-04-11T11:37:37.018Z,540.00
2023-04-11T11:41:36.828Z,539.00
2023-04-11T11:45:37.074Z,537.00
2023-04-11T11:49:36.753Z,532.00
2023-04-11T11:53:37.000Z,537.00
2023-04-11T11:57:36.687Z,544.00
2023-04-11T12:01:37.022Z,544.00
2023-04-11T12:05:37.078Z,536.00
2023-04-11T12:09:37.552Z,537.00
2023-04-11T12:13:37.506Z,536.00
2023-04-11T12:17:37.979Z,538.00
2023-04-11T12:21:37.597Z,541.00
2023-04-11T12:25:38.009Z,534.00
2023-04-11T12:29:37.523Z,531.00
2023-04-11T12:33:37.555Z,539.00
2023-04-11T12:37:37.054Z,536.00
2023-04-11T12:41:37.548Z,534.00
2023-04-11T12:45:37.569Z,533.00
2023-04-11T12:49:37.522Z,538.00
2023-04-11T12:53:37.069Z,531.00
2023-04-11T12:57:37.070Z,528.00
2023-04-11T13:01:47.191Z,531.00
2023-04-11T13:05:37.120Z,537.00
2023-04-11T13:09:37.044Z,525.00
2023-04-11T13:13:36.931Z,528.00
2023-04-11T13:17:37.161Z,530.00
2023-04-11T13:21:37.071Z,537.00
2023-04-11T13:25:37.098Z,531.00
2023-04-11T13:29:37.121Z,526.00
2023-04-11T13:33:36.854Z,525.00
2023-04-11T13:37:37.108Z,522.00
2023-04-11T13:41:36.838Z,526.00
2023-04-11T13:45:37.099Z,524.00
2023-04-11T13:49:36.701Z,524.00
2023-04-11T13:53:36.660Z,530.00
2023-04-11T13:57:37.122Z,528.00
2023-04-11T14:01:37.195Z,518.00
2023-04-11T14:05:36.593Z,523.00
2023-04-11T14:09:37.079Z,530.00
2023-04-11T14:13:36.922Z,515.00
2023-04-11T14:17:37.138Z,528.00
2023-04-11T14:21:37.254Z,525.00
2023-04-11T14:25:37.385Z,525.00
2023-04-11T14:29:37.640Z,525.00
2023-04-11T14:33:37.694Z,520.00
2023-04-11T14:37:37.867Z,522.00
2023-04-11T14:41:38.132Z,522.00
2023-04-11T14:45:38.232Z,519.00
2023-04-11T14:49:38.350Z,523.00
2023-04-11T14:53:38.626Z,517.00
2023-04-11T14:57:38.638Z,527.00
2023-04-11T15:01:39.286Z,519.00
2023-04-11T15:05:39.102Z,517.00
2023-04-11T15:09:39.236Z,512.00
2023-04-11T15:13:39.982Z,511.00
2023-04-11T15:17:39.607Z,532.00
2023-04-11T15:21:40.129Z,565.00
2023-04-11T15:25:39.742Z,593.00
2023-04-11T15:29:39.797Z,613.00
2023-04-11T15:33:39.775Z,649.00
2023-04-11T15:37:40.206Z,680.00
2023-04-11T15:41:40.139Z,741.00
2023-04-11T15:45:39.586Z,790.00
2023-04-11T15:49:39.597Z,843.00
2023-04-11T15:53:39.546Z,883.00
2023-04-11T15:57:39.592Z,856.00
2023-04-11T16:01:39.657Z,876.00
2023-04-11T16:05:39.440Z,862.00
2023-04-11T16:09:39.414Z,1192.00
2023-04-11T16:13:39.637Z,1273.00
2023-04-11T16:17:39.999Z,1008.00
2023-04-11T16:21:40.104Z,1068.00
2023-04-11T16:25:40.243Z,1016.00
2023-04-11T16:29:40.669Z,982.00
2023-04-11T16:33:40.647Z,972.00
2023-04-11T16:37:40.705Z,970.00
2023-04-11T16:41:40.647Z,976.00
2023-04-11T16:45:40.587Z,975.00
2023-04-11T16:49:40.314Z,965.00
2023-04-11T16:57:59.212Z,500.00
2023-04-11T17:01:59.301Z,500.00
2023-04-11T17:05:59.107Z,503.00
2023-04-11T17:09:59.893Z,508.00
2023-04-11T17:13:59.349Z,500.00
2023-04-11T17:17:59.303Z,504.00
2023-04-11T17:21:58.953Z,503.00
2023-04-11T17:25:58.889Z,503.00
2023-04-11T17:29:58.873Z,506.00
2023-04-11T17:33:59.093Z,500.00
2023-04-11T17:37:58.766Z,506.00
2023-04-11T17:41:58.753Z,504.00
2023-04-11T17:45:58.831Z,502.00
2023-04-11T17:49:58.717Z,503.00
2023-04-11T17:53:59.078Z,505.00
2023-04-11T17:57:58.724Z,507.00
2023-04-11T18:01:58.914Z,504.00
2023-04-11T18:05:58.818Z,507.00
2023-04-11T18:09:58.864Z,508.00
2023-04-11T18:13:59.155Z,502.00
2023-04-11T18:17:59.145Z,504.00
2023-04-11T18:21:58.949Z,501.00
2023-04-11T18:25:59.062Z,506.00
2023-04-11T18:29:58.798Z,507.00
2023-04-11T18:33:59.744Z,504.00
2023-04-11T18:37:58.915Z,527.00
2023-04-11T18:41:59.072Z,551.00
2023-04-11T18:46:05.882Z,555.00
2023-04-11T18:49:58.770Z,559.00
2023-04-11T18:53:59.022Z,575.00
2023-04-11T18:58:00.294Z,584.00
2023-04-11T19:01:58.779Z,589.00
2023-04-11T19:05:59.130Z,596.00
2023-04-11T19:09:58.883Z,595.00
2023-04-11T19:13:59.273Z,586.00
2023-04-11T19:17:59.249Z,585.00
2023-04-11T19:21:59.426Z,585.00
2023-04-11T19:25:59.554Z,575.00
2023-04-11T19:29:59.803Z,575.00
2023-04-11T19:34:00.009Z,567.00
2023-04-11T19:38:02.202Z,566.00
2023-04-11T19:42:00.196Z,567.00
2023-04-11T19:46:00.211Z,568.00
2023-04-11T19:50:00.143Z,562.00
2023-04-11T19:54:00.117Z,562.00
2023-04-11T19:58:00.116Z,558.00
2023-04-11T20:02:00.110Z,554.00
2023-04-11T20:06:00.002Z,553.00
2023-04-11T20:09:59.989Z,552.00
2023-04-11T20:13:59.903Z,550.00
2023-04-11T20:17:59.943Z,545.00
2023-04-11T20:21:59.875Z,546.00
2023-04-11T20:25:59.823Z,541.00
2023-04-11T20:29:59.797Z,539.00
2023-04-11T20:33:59.913Z,534.00
2023-04-11T20:37:59.754Z,536.00
2023-04-11T20:41:59.716Z,531.00
2023-04-11T20:45:59.712Z,530.00
2023-04-11T20:49:59.640Z,530.00
2023-04-11T20:53:59.615Z,533.00
2023-04-11T20:57:59.601Z,522.00
2023-04-11T21:01:59.607Z,526.00
2023-04-11T21:05:59.494Z,521.00
2023-04-11T21:09:59.475Z,518.00
2023-04-11T21:13:59.561Z,521.00
2023-04-11T21:17:59.486Z,515.00
2023-04-11T21:21:59.357Z,518.00
2023-04-11T21:25:59.419Z,519.00
2023-04-11T21:29:59.320Z,512.00
2023-04-11T21:33:59.464Z,515.00
2023-04-11T21:37:59.228Z,515.00
2023-04-11T21:41:59.182Z,512.00
2023-04-11T21:45:59.189Z,518.00
2023-04-11T21:49:59.482Z,516.00
2023-04-11T21:53:59.550Z,506.00
2023-04-11T21:57:59.392Z,503.00
2023-04-11T22:01:59.719Z,501.00
2023-04-11T22:05:59.725Z,503.00
2023-04-11T22:09:59.869Z,505.00
2023-04-11T22:13:59.986Z,512.00
2023-04-11T22:18:00.237Z,508.00
2023-04-11T22:22:00.371Z,505.00
2023-04-11T22:26:00.482Z,508.00
2023-04-11T22:30:00.669Z,510.00
2023-04-11T22:34:00.843Z,508.00
2023-04-11T22:38:01.059Z,505.00
2023-04-11T22:42:01.253Z,509.00
2023-04-11T22:46:01.596Z,510.00
2023-04-11T22:50:01.671Z,510.00
2023-04-11T22:54:01.630Z,507.00
2023-04-11T22:58:01.586Z,514.00
2023-04-11T23:02:01.645Z,510.00
2023-04-11T23:06:01.523Z,506.00
2023-04-11T23:10:01.506Z,502.00
2023-04-11T23:14:01.468Z,510.00
2023-04-11T23:18:01.542Z,506.00
2023-04-11T23:22:01.391Z,504.00
2023-04-11T23:26:01.358Z,512.00
2023-04-11T23:30:01.406Z,512.00
2023-04-11T23:34:01.451Z,505.00
2023-04-11T23:38:01.399Z,510.00
2023-04-11T23:42:01.359Z,506.00
2023-04-11T23:46:01.290Z,513.00
2023-04-11T23:50:01.241Z,511.00
2023-04-11T23:54:01.194Z,513.00
2023-04-11T23:58:01.156Z,503.00
